sensor_id;sensor_type;location;lat;lon;timestamp;temperature;humidity
8820;DHT22;4446;50.876;4.736;2022-07-22T00:01:54;14.20;99.90
8820;DHT22;4446;50.876;4.736;2022-07-22T00:04:21;14.10;99.90
8820;DHT22;4446;50.876;4.736;2022-07-22T00:06:48;14.10;99.90
8820;DHT22;4446;50.876;4.736;2022-07-22T00:09:16;14.00;99.90
8820;DHT22;4446;50.876;4.736;2022-07-22T00:11:43;13.90;99.90
8820;DHT22;4446;50.876;4.736;2022-07-22T00:14:10;13.90;99.90
8820;DHT22;4446;50.876;4.736;2022-07-22T00:16:38;13.80;99.90
8820;DHT22;4446;50.876;4.736;2022-07-22T00:19:05;13.80;99.90
8820;DHT22;4446;50.876;4.736;2022-07-22T00:21:32;13.80;99.90
8820;DHT22;4446;50.876;4.736;2022-07-22T00:24:00;13.70;99.90
8820;DHT22;4446;50.876;4.736;2022-07-22T00:26:28;13.70;99.90
8820;DHT22;4446;50.876;4.736;2022-07-22T00:28:55;13.60;99.90
8820;DHT22;4446;50.876;4.736;2022-07-22T00:31:22;13.60;99.90
8820;DHT22;4446;50.876;4.736;2022-07-22T00:33:49;13.60;99.90
8820;DHT22;4446;50.876;4.736;2022-07-22T00:36:16;13.50;99.90
8820;DHT22;4446;50.876;4.736;2022-07-22T00:38:44;13.50;99.90
8820;DHT22;4446;50.876;4.736;2022-07-22T00:41:11;13.50;99.90
8820;DHT22;4446;50.876;4.736;2022-07-22T00:43:54;13.50;99.90
8820;DHT22;4446;50.876;4.736;2022-07-22T00:46:22;13.50;99.90
8820;DHT22;4446;50.876;4.736;2022-07-22T00:48:49;13.50;99.90
8820;DHT22;4446;50.876;4.736;2022-07-22T00:51:17;13.50;99.90
8820;DHT22;4446;50.876;4.736;2022-07-22T00:53:45;13.50;99.90
8820;DHT22;4446;50.876;4.736;2022-07-22T00:56:13;13.40;99.90
8820;DHT22;4446;50.876;4.736;2022-07-22T00:58:40;13.40;99.90
8820;DHT22;4446;50.876;4.736;2022-07-22T01:01:09;13.40;99.90
8820;DHT22;4446;50.876;4.736;2022-07-22T01:03:36;13.40;99.90
8820;DHT22;4446;50.876;4.736;2022-07-22T01:06:04;13.40;99.90
8820;DHT22;4446;50.876;4.736;2022-07-22T01:08:32;13.30;99.90
8820;DHT22;4446;50.876;4.736;2022-07-22T01:11:07;13.30;99.90
8820;DHT22;4446;50.876;4.736;2022-07-22T01:13:34;13.20;99.90
8820;DHT22;4446;50.876;4.736;2022-07-22T01:16:02;13.20;99.90
8820;DHT22;4446;50.876;4.736;2022-07-22T01:18:31;13.20;99.90
8820;DHT22;4446;50.876;4.736;2022-07-22T01:20:59;13.20;99.90
8820;DHT22;4446;50.876;4.736;2022-07-22T01:23:27;13.20;99.90
8820;DHT22;4446;50.876;4.736;2022-07-22T01:25:54;13.20;99.90
8820;DHT22;4446;50.876;4.736;2022-07-22T01:28:21;13.10;99.90
8820;DHT22;4446;50.876;4.736;2022-07-22T01:30:48;13.10;99.90
8820;DHT22;4446;50.876;4.736;2022-07-22T01:33:16;13.10;99.90
8820;DHT22;4446;50.876;4.736;2022-07-22T01:35:43;13.10;99.90
8820;DHT22;4446;50.876;4.736;2022-07-22T01:38:12;13.10;99.90
8820;DHT22;4446;50.876;4.736;2022-07-22T01:40:39;13.10;99.90
8820;DHT22;4446;50.876;4.736;2022-07-22T01:43:07;13.10;99.90
8820;DHT22;4446;50.876;4.736;2022-07-22T01:45:34;13.10;99.90
8820;DHT22;4446;50.876;4.736;2022-07-22T01:48:02;13.10;99.90
8820;DHT22;4446;50.876;4.736;2022-07-22T01:50:29;13.20;99.90
8820;DHT22;4446;50.876;4.736;2022-07-22T01:52:57;13.10;99.90
8820;DHT22;4446;50.876;4.736;2022-07-22T01:55:25;13.10;99.90
8820;DHT22;4446;50.876;4.736;2022-07-22T01:57:52;13.10;99.90
8820;DHT22;4446;50.876;4.736;2022-07-22T02:00:19;13.00;99.90
8820;DHT22;4446;50.876;4.736;2022-07-22T02:02:46;13.00;99.90
8820;DHT22;4446;50.876;4.736;2022-07-22T02:05:13;13.00;99.90
8820;DHT22;4446;50.876;4.736;2022-07-22T02:07:41;13.00;99.90
8820;DHT22;4446;50.876;4.736;2022-07-22T02:10:08;13.00;99.90
8820;DHT22;4446;50.876;4.736;2022-07-22T02:12:38;13.00;99.90
8820;DHT22;4446;50.876;4.736;2022-07-22T02:15:06;13.00;99.90
8820;DHT22;4446;50.876;4.736;2022-07-22T02:17:34;12.90;99.90
8820;DHT22;4446;50.876;4.736;2022-07-22T02:20:01;12.90;99.90
8820;DHT22;4446;50.876;4.736;2022-07-22T02:22:28;12.90;99.90
8820;DHT22;4446;50.876;4.736;2022-07-22T02:24:55;12.90;99.90
8820;DHT22;4446;50.876;4.736;2022-07-22T02:27:22;12.80;99.90
8820;DHT22;4446;50.876;4.736;2022-07-22T02:29:51;12.80;99.90
8820;DHT22;4446;50.876;4.736;2022-07-22T02:32:18;12.80;99.90
8820;DHT22;4446;50.876;4.736;2022-07-22T02:34:45;12.70;99.90
8820;DHT22;4446;50.876;4.736;2022-07-22T02:37:15;12.70;99.90
8820;DHT22;4446;50.876;4.736;2022-07-22T02:39:42;12.80;99.90
8820;DHT22;4446;50.876;4.736;2022-07-22T02:42:09;12.80;99.90
8820;DHT22;4446;50.876;4.736;2022-07-22T02:44:36;12.70;99.90
8820;DHT22;4446;50.876;4.736;2022-07-22T02:47:04;12.70;99.90
8820;DHT22;4446;50.876;4.736;2022-07-22T02:49:32;12.80;99.90
8820;DHT22;4446;50.876;4.736;2022-07-22T02:51:59;12.80;99.90
8820;DHT22;4446;50.876;4.736;2022-07-22T02:54:26;12.70;99.90
8820;DHT22;4446;50.876;4.736;2022-07-22T02:56:53;12.70;99.90
8820;DHT22;4446;50.876;4.736;2022-07-22T02:59:20;12.70;99.90
8820;DHT22;4446;50.876;4.736;2022-07-22T03:01:47;12.60;99.90
8820;DHT22;4446;50.876;4.736;2022-07-22T03:04:15;12.60;99.90
8820;DHT22;4446;50.876;4.736;2022-07-22T03:06:43;12.60;99.90
8820;DHT22;4446;50.876;4.736;2022-07-22T03:09:10;12.60;99.90
8820;DHT22;4446;50.876;4.736;2022-07-22T03:11:37;12.60;99.90
8820;DHT22;4446;50.876;4.736;2022-07-22T03:14:04;12.60;99.90
8820;DHT22;4446;50.876;4.736;2022-07-22T03:16:31;12.60;99.90
8820;DHT22;4446;50.876;4.736;2022-07-22T03:18:58;12.60;99.90
8820;DHT22;4446;50.876;4.736;2022-07-22T03:21:26;12.50;99.90
8820;DHT22;4446;50.876;4.736;2022-07-22T03:23:53;12.50;99.90
8820;DHT22;4446;50.876;4.736;2022-07-22T03:26:20;12.50;99.90
8820;DHT22;4446;50.876;4.736;2022-07-22T03:28:47;12.50;99.90
8820;DHT22;4446;50.876;4.736;2022-07-22T03:31:15;12.50;99.90
8820;DHT22;4446;50.876;4.736;2022-07-22T03:33:42;12.40;99.90
8820;DHT22;4446;50.876;4.736;2022-07-22T03:36:09;12.40;99.90
8820;DHT22;4446;50.876;4.736;2022-07-22T03:38:37;12.40;99.90
8820;DHT22;4446;50.876;4.736;2022-07-22T03:41:04;12.40;99.90
8820;DHT22;4446;50.876;4.736;2022-07-22T03:43:31;12.40;99.90
8820;DHT22;4446;50.876;4.736;2022-07-22T03:45:58;12.40;99.90
8820;DHT22;4446;50.876;4.736;2022-07-22T03:48:26;12.40;99.90
8820;DHT22;4446;50.876;4.736;2022-07-22T03:50:53;12.30;99.90
8820;DHT22;4446;50.876;4.736;2022-07-22T03:53:20;12.30;99.90
8820;DHT22;4446;50.876;4.736;2022-07-22T03:55:48;12.30;99.90
8820;DHT22;4446;50.876;4.736;2022-07-22T03:58:16;12.30;99.90
8820;DHT22;4446;50.876;4.736;2022-07-22T04:00:43;12.30;99.90
8820;DHT22;4446;50.876;4.736;2022-07-22T04:03:10;12.30;99.90
8820;DHT22;4446;50.876;4.736;2022-07-22T04:05:37;12.40;99.90
8820;DHT22;4446;50.876;4.736;2022-07-22T04:08:04;12.40;99.90
8820;DHT22;4446;50.876;4.736;2022-07-22T04:10:32;12.40;99.90
8820;DHT22;4446;50.876;4.736;2022-07-22T04:13:00;12.50;99.90
8820;DHT22;4446;50.876;4.736;2022-07-22T04:15:27;12.60;99.90
8820;DHT22;4446;50.876;4.736;2022-07-22T04:17:54;12.60;99.90
8820;DHT22;4446;50.876;4.736;2022-07-22T04:20:21;12.60;99.90
8820;DHT22;4446;50.876;4.736;2022-07-22T04:22:48;12.60;99.90
8820;DHT22;4446;50.876;4.736;2022-07-22T04:25:16;12.60;99.90
8820;DHT22;4446;50.876;4.736;2022-07-22T04:27:43;12.70;99.90
8820;DHT22;4446;50.876;4.736;2022-07-22T04:30:12;12.70;99.90
8820;DHT22;4446;50.876;4.736;2022-07-22T04:32:38;12.80;99.90
8820;DHT22;4446;50.876;4.736;2022-07-22T04:35:06;12.80;99.90
8820;DHT22;4446;50.876;4.736;2022-07-22T04:37:33;12.90;99.90
8820;DHT22;4446;50.876;4.736;2022-07-22T04:40:00;12.90;99.90
8820;DHT22;4446;50.876;4.736;2022-07-22T04:42:27;12.90;99.90
8820;DHT22;4446;50.876;4.736;2022-07-22T04:44:54;13.00;99.90
8820;DHT22;4446;50.876;4.736;2022-07-22T04:47:23;13.00;99.90
8820;DHT22;4446;50.876;4.736;2022-07-22T04:49:50;13.10;99.90
8820;DHT22;4446;50.876;4.736;2022-07-22T04:52:17;13.10;99.90
8820;DHT22;4446;50.876;4.736;2022-07-22T04:54:44;13.10;99.90
8820;DHT22;4446;50.876;4.736;2022-07-22T04:57:11;13.20;99.90
8820;DHT22;4446;50.876;4.736;2022-07-22T04:59:38;13.30;99.90
8820;DHT22;4446;50.876;4.736;2022-07-22T05:02:06;13.30;99.90
8820;DHT22;4446;50.876;4.736;2022-07-22T05:04:34;13.40;99.90
8820;DHT22;4446;50.876;4.736;2022-07-22T05:07:01;13.50;99.90
8820;DHT22;4446;50.876;4.736;2022-07-22T05:09:29;13.50;99.90
8820;DHT22;4446;50.876;4.736;2022-07-22T05:11:56;13.60;99.90
8820;DHT22;4446;50.876;4.736;2022-07-22T05:14:23;13.70;99.90
8820;DHT22;4446;50.876;4.736;2022-07-22T05:16:50;13.80;99.90
8820;DHT22;4446;50.876;4.736;2022-07-22T05:19:16;13.80;99.90
8820;DHT22;4446;50.876;4.736;2022-07-22T05:21:45;13.90;99.90
8820;DHT22;4446;50.876;4.736;2022-07-22T05:24:12;14.00;99.90
8820;DHT22;4446;50.876;4.736;2022-07-22T05:26:39;14.10;99.90
8820;DHT22;4446;50.876;4.736;2022-07-22T05:29:06;14.20;99.90
8820;DHT22;4446;50.876;4.736;2022-07-22T05:31:33;14.30;99.90
8820;DHT22;4446;50.876;4.736;2022-07-22T05:34:00;14.40;99.90
8820;DHT22;4446;50.876;4.736;2022-07-22T05:36:28;14.60;99.90
8820;DHT22;4446;50.876;4.736;2022-07-22T05:38:57;14.70;99.90
8820;DHT22;4446;50.876;4.736;2022-07-22T05:41:24;14.70;99.90
8820;DHT22;4446;50.876;4.736;2022-07-22T05:43:51;14.80;99.90
8820;DHT22;4446;50.876;4.736;2022-07-22T05:46:18;14.80;99.90
8820;DHT22;4446;50.876;4.736;2022-07-22T05:48:45;14.80;99.90
8820;DHT22;4446;50.876;4.736;2022-07-22T05:51:12;14.90;99.90
8820;DHT22;4446;50.876;4.736;2022-07-22T05:53:40;14.90;99.90
8820;DHT22;4446;50.876;4.736;2022-07-22T05:56:09;15.00;99.90
8820;DHT22;4446;50.876;4.736;2022-07-22T05:58:37;15.10;99.90
8820;DHT22;4446;50.876;4.736;2022-07-22T06:01:05;15.20;99.90
8820;DHT22;4446;50.876;4.736;2022-07-22T06:03:32;15.30;99.90
8820;DHT22;4446;50.876;4.736;2022-07-22T06:05:59;15.40;99.90
8820;DHT22;4446;50.876;4.736;2022-07-22T06:08:27;15.50;99.90
8820;DHT22;4446;50.876;4.736;2022-07-22T06:10:55;15.60;99.90
8820;DHT22;4446;50.876;4.736;2022-07-22T06:13:25;15.60;99.90
8820;DHT22;4446;50.876;4.736;2022-07-22T06:15:53;15.70;99.90
8820;DHT22;4446;50.876;4.736;2022-07-22T06:18:20;15.80;99.90
8820;DHT22;4446;50.876;4.736;2022-07-22T06:20:47;15.90;99.90
8820;DHT22;4446;50.876;4.736;2022-07-22T06:23:14;16.00;99.90
8820;DHT22;4446;50.876;4.736;2022-07-22T06:25:41;16.10;99.90
8820;DHT22;4446;50.876;4.736;2022-07-22T06:28:08;16.10;99.90
8820;DHT22;4446;50.876;4.736;2022-07-22T06:30:37;16.20;99.90
8820;DHT22;4446;50.876;4.736;2022-07-22T06:33:04;16.30;99.90
8820;DHT22;4446;50.876;4.736;2022-07-22T06:35:31;16.40;99.90
8820;DHT22;4446;50.876;4.736;2022-07-22T06:37:58;16.50;99.90
8820;DHT22;4446;50.876;4.736;2022-07-22T06:40:25;16.60;99.90
8820;DHT22;4446;50.876;4.736;2022-07-22T06:42:52;16.80;99.90
8820;DHT22;4446;50.876;4.736;2022-07-22T06:45:19;16.80;99.90
8820;DHT22;4446;50.876;4.736;2022-07-22T06:47:48;17.00;99.90
8820;DHT22;4446;50.876;4.736;2022-07-22T06:50:15;17.20;99.90
8820;DHT22;4446;50.876;4.736;2022-07-22T06:52:42;17.20;99.90
8820;DHT22;4446;50.876;4.736;2022-07-22T06:55:12;17.30;99.90
8820;DHT22;4446;50.876;4.736;2022-07-22T06:57:39;17.40;99.90
8820;DHT22;4446;50.876;4.736;2022-07-22T07:00:07;17.50;99.90
8820;DHT22;4446;50.876;4.736;2022-07-22T07:02:35;17.50;99.90
8820;DHT22;4446;50.876;4.736;2022-07-22T07:05:04;17.60;99.90
8820;DHT22;4446;50.876;4.736;2022-07-22T07:07:31;17.60;99.90
8820;DHT22;4446;50.876;4.736;2022-07-22T07:09:58;17.60;99.90
8820;DHT22;4446;50.876;4.736;2022-07-22T07:12:25;17.60;99.90
8820;DHT22;4446;50.876;4.736;2022-07-22T07:14:52;17.60;99.90
8820;DHT22;4446;50.876;4.736;2022-07-22T07:17:19;17.70;99.90
8820;DHT22;4446;50.876;4.736;2022-07-22T07:19:46;17.80;99.90
8820;DHT22;4446;50.876;4.736;2022-07-22T07:22:14;18.00;99.90
8820;DHT22;4446;50.876;4.736;2022-07-22T07:24:41;18.10;99.90
8820;DHT22;4446;50.876;4.736;2022-07-22T07:27:08;18.20;99.90
8820;DHT22;4446;50.876;4.736;2022-07-22T07:29:36;18.40;99.90
8820;DHT22;4446;50.876;4.736;2022-07-22T07:32:03;18.70;99.90
8820;DHT22;4446;50.876;4.736;2022-07-22T07:34:31;18.80;99.90
8820;DHT22;4446;50.876;4.736;2022-07-22T07:36:57;19.00;99.90
8820;DHT22;4446;50.876;4.736;2022-07-22T07:39:26;19.30;99.90
8820;DHT22;4446;50.876;4.736;2022-07-22T07:41:53;19.60;99.90
8820;DHT22;4446;50.876;4.736;2022-07-22T07:44:20;19.80;99.90
8820;DHT22;4446;50.876;4.736;2022-07-22T07:46:47;19.90;99.90
8820;DHT22;4446;50.876;4.736;2022-07-22T07:49:14;20.10;99.90
8820;DHT22;4446;50.876;4.736;2022-07-22T07:51:41;20.20;99.90
8820;DHT22;4446;50.876;4.736;2022-07-22T07:54:08;20.50;99.90
8820;DHT22;4446;50.876;4.736;2022-07-22T07:56:36;20.60;99.90
8820;DHT22;4446;50.876;4.736;2022-07-22T07:59:03;20.90;99.90
8820;DHT22;4446;50.876;4.736;2022-07-22T08:01:31;21.00;99.90
8820;DHT22;4446;50.876;4.736;2022-07-22T08:03:58;21.10;99.90
8820;DHT22;4446;50.876;4.736;2022-07-22T08:06:25;21.10;99.90
8820;DHT22;4446;50.876;4.736;2022-07-22T08:08:52;20.90;99.90
8820;DHT22;4446;50.876;4.736;2022-07-22T08:11:20;21.10;99.90
8820;DHT22;4446;50.876;4.736;2022-07-22T08:13:48;21.40;99.90
8820;DHT22;4446;50.876;4.736;2022-07-22T08:16:17;21.40;99.90
8820;DHT22;4446;50.876;4.736;2022-07-22T08:18:44;21.60;99.90
8820;DHT22;4446;50.876;4.736;2022-07-22T08:21:11;21.70;99.90
8820;DHT22;4446;50.876;4.736;2022-07-22T08:23:38;21.80;99.90
8820;DHT22;4446;50.876;4.736;2022-07-22T08:26:05;21.80;99.90
8820;DHT22;4446;50.876;4.736;2022-07-22T08:28:32;21.70;99.90
8820;DHT22;4446;50.876;4.736;2022-07-22T08:31:00;21.60;99.90
8820;DHT22;4446;50.876;4.736;2022-07-22T08:33:27;21.40;99.90
8820;DHT22;4446;50.876;4.736;2022-07-22T08:35:54;21.50;99.90
8820;DHT22;4446;50.876;4.736;2022-07-22T08:38:21;21.50;99.90
8820;DHT22;4446;50.876;4.736;2022-07-22T08:40:48;21.50;99.90
8820;DHT22;4446;50.876;4.736;2022-07-22T08:43:15;21.40;99.90
8820;DHT22;4446;50.876;4.736;2022-07-22T08:45:43;21.30;99.90
8820;DHT22;4446;50.876;4.736;2022-07-22T08:48:11;21.40;99.90
8820;DHT22;4446;50.876;4.736;2022-07-22T08:50:38;21.50;99.90
8820;DHT22;4446;50.876;4.736;2022-07-22T08:53:08;21.70;99.90
8820;DHT22;4446;50.876;4.736;2022-07-22T08:55:40;21.90;99.90
8820;DHT22;4446;50.876;4.736;2022-07-22T08:58:07;21.70;99.90
8820;DHT22;4446;50.876;4.736;2022-07-22T09:00:35;21.70;99.90
8820;DHT22;4446;50.876;4.736;2022-07-22T09:03:17;21.70;99.90
8820;DHT22;4446;50.876;4.736;2022-07-22T09:05:46;21.80;99.90
8820;DHT22;4446;50.876;4.736;2022-07-22T09:08:13;21.90;99.90
8820;DHT22;4446;50.876;4.736;2022-07-22T09:10:40;22.00;99.90
8820;DHT22;4446;50.876;4.736;2022-07-22T09:13:09;22.30;99.90
8820;DHT22;4446;50.876;4.736;2022-07-22T09:15:38;22.30;99.90
8820;DHT22;4446;50.876;4.736;2022-07-22T09:18:08;22.30;99.90
8820;DHT22;4446;50.876;4.736;2022-07-22T09:20:37;22.10;99.90
8820;DHT22;4446;50.876;4.736;2022-07-22T09:23:11;22.50;99.90
8820;DHT22;4446;50.876;4.736;2022-07-22T09:25:39;22.80;99.90
8820;DHT22;4446;50.876;4.736;2022-07-22T09:28:13;22.80;99.90
8820;DHT22;4446;50.876;4.736;2022-07-22T09:30:45;22.90;99.90
8820;DHT22;4446;50.876;4.736;2022-07-22T09:33:13;23.00;99.90
8820;DHT22;4446;50.876;4.736;2022-07-22T09:35:42;23.00;99.90
8820;DHT22;4446;50.876;4.736;2022-07-22T09:38:10;23.10;99.90
8820;DHT22;4446;50.876;4.736;2022-07-22T09:40:38;23.00;99.90
8820;DHT22;4446;50.876;4.736;2022-07-22T09:43:07;23.10;99.90
8820;DHT22;4446;50.876;4.736;2022-07-22T09:45:44;23.40;99.90
8820;DHT22;4446;50.876;4.736;2022-07-22T09:48:11;23.90;99.90
8820;DHT22;4446;50.876;4.736;2022-07-22T09:50:38;24.10;99.90
8820;DHT22;4446;50.876;4.736;2022-07-22T09:53:07;24.20;99.90
8820;DHT22;4446;50.876;4.736;2022-07-22T09:55:34;24.00;99.90
8820;DHT22;4446;50.876;4.736;2022-07-22T09:58:04;24.00;99.90
8820;DHT22;4446;50.876;4.736;2022-07-22T10:00:31;23.90;99.90
8820;DHT22;4446;50.876;4.736;2022-07-22T10:03:00;23.70;99.90
8820;DHT22;4446;50.876;4.736;2022-07-22T10:05:28;23.80;99.90
8820;DHT22;4446;50.876;4.736;2022-07-22T10:07:56;24.20;99.90
8820;DHT22;4446;50.876;4.736;2022-07-22T10:10:27;24.30;99.90
8820;DHT22;4446;50.876;4.736;2022-07-22T10:12:55;23.80;99.90
8820;DHT22;4446;50.876;4.736;2022-07-22T10:15:23;24.00;99.90
8820;DHT22;4446;50.876;4.736;2022-07-22T10:17:52;24.00;99.90
8820;DHT22;4446;50.876;4.736;2022-07-22T10:20:21;24.00;99.90
8820;DHT22;4446;50.876;4.736;2022-07-22T10:22:51;24.30;99.90
8820;DHT22;4446;50.876;4.736;2022-07-22T10:25:20;24.40;99.90
8820;DHT22;4446;50.876;4.736;2022-07-22T10:27:50;24.40;99.90
8820;DHT22;4446;50.876;4.736;2022-07-22T10:30:19;24.30;99.90
8820;DHT22;4446;50.876;4.736;2022-07-22T10:33:05;24.30;99.90
8820;DHT22;4446;50.876;4.736;2022-07-22T10:35:34;24.30;99.90
8820;DHT22;4446;50.876;4.736;2022-07-22T10:38:04;23.90;99.90
8820;DHT22;4446;50.876;4.736;2022-07-22T10:40:46;24.30;99.90
8820;DHT22;4446;50.876;4.736;2022-07-22T10:43:16;24.30;99.90
8820;DHT22;4446;50.876;4.736;2022-07-22T10:45:49;24.30;99.90
8820;DHT22;4446;50.876;4.736;2022-07-22T10:48:18;24.20;99.90
8820;DHT22;4446;50.876;4.736;2022-07-22T10:50:51;23.90;99.90
8820;DHT22;4446;50.876;4.736;2022-07-22T10:53:23;24.00;99.90
8820;DHT22;4446;50.876;4.736;2022-07-22T10:56:12;23.80;99.90
8820;DHT22;4446;50.876;4.736;2022-07-22T10:58:59;24.10;99.90
8820;DHT22;4446;50.876;4.736;2022-07-22T11:01:33;24.30;99.90
8820;DHT22;4446;50.876;4.736;2022-07-22T11:04:12;24.30;99.90
8820;DHT22;4446;50.876;4.736;2022-07-22T11:06:39;24.40;99.90
8820;DHT22;4446;50.876;4.736;2022-07-22T11:09:09;24.40;99.90
8820;DHT22;4446;50.876;4.736;2022-07-22T11:11:39;24.10;99.90
8820;DHT22;4446;50.876;4.736;2022-07-22T11:14:26;24.30;99.90
8820;DHT22;4446;50.876;4.736;2022-07-22T11:16:55;24.30;99.90
8820;DHT22;4446;50.876;4.736;2022-07-22T11:19:24;24.50;99.90
8820;DHT22;4446;50.876;4.736;2022-07-22T11:21:53;24.50;99.90
8820;DHT22;4446;50.876;4.736;2022-07-22T11:24:21;24.50;99.90
8820;DHT22;4446;50.876;4.736;2022-07-22T11:26:50;24.70;99.90
8820;DHT22;4446;50.876;4.736;2022-07-22T11:29:23;24.80;99.90
8820;DHT22;4446;50.876;4.736;2022-07-22T11:31:53;24.60;99.90
8820;DHT22;4446;50.876;4.736;2022-07-22T11:34:21;24.60;99.90
8820;DHT22;4446;50.876;4.736;2022-07-22T11:36:50;24.60;99.90
8820;DHT22;4446;50.876;4.736;2022-07-22T11:39:20;24.70;99.90
8820;DHT22;4446;50.876;4.736;2022-07-22T11:41:47;24.90;99.90
8820;DHT22;4446;50.876;4.736;2022-07-22T11:44:18;25.10;99.90
8820;DHT22;4446;50.876;4.736;2022-07-22T11:46:46;25.00;99.90
8820;DHT22;4446;50.876;4.736;2022-07-22T11:49:16;25.20;99.90
8820;DHT22;4446;50.876;4.736;2022-07-22T11:51:43;25.40;99.90
8820;DHT22;4446;50.876;4.736;2022-07-22T11:54:10;25.40;99.90
8820;DHT22;4446;50.876;4.736;2022-07-22T11:56:38;25.80;99.90
8820;DHT22;4446;50.876;4.736;2022-07-22T11:59:06;25.60;99.90
8820;DHT22;4446;50.876;4.736;2022-07-22T12:01:35;25.90;99.90
8820;DHT22;4446;50.876;4.736;2022-07-22T12:04:05;26.10;99.90
8820;DHT22;4446;50.876;4.736;2022-07-22T12:06:34;26.10;99.90
8820;DHT22;4446;50.876;4.736;2022-07-22T12:09:06;25.90;99.90
8820;DHT22;4446;50.876;4.736;2022-07-22T12:11:35;25.80;99.90
8820;DHT22;4446;50.876;4.736;2022-07-22T12:14:07;25.90;99.90
8820;DHT22;4446;50.876;4.736;2022-07-22T12:16:35;26.10;99.90
8820;DHT22;4446;50.876;4.736;2022-07-22T12:19:04;26.20;99.90
8820;DHT22;4446;50.876;4.736;2022-07-22T12:21:35;26.20;99.90
8820;DHT22;4446;50.876;4.736;2022-07-22T12:24:05;26.30;99.90
8820;DHT22;4446;50.876;4.736;2022-07-22T12:26:45;26.40;99.90
8820;DHT22;4446;50.876;4.736;2022-07-22T12:29:21;26.50;99.90
8820;DHT22;4446;50.876;4.736;2022-07-22T12:31:50;26.40;99.90
8820;DHT22;4446;50.876;4.736;2022-07-22T12:34:29;26.60;99.90
8820;DHT22;4446;50.876;4.736;2022-07-22T12:36:58;26.60;99.90
8820;DHT22;4446;50.876;4.736;2022-07-22T12:39:28;26.20;99.90
8820;DHT22;4446;50.876;4.736;2022-07-22T12:41:55;26.10;99.90
8820;DHT22;4446;50.876;4.736;2022-07-22T12:44:24;25.70;99.90
8820;DHT22;4446;50.876;4.736;2022-07-22T12:46:54;25.80;99.90
8820;DHT22;4446;50.876;4.736;2022-07-22T12:49:23;26.30;99.90
8820;DHT22;4446;50.876;4.736;2022-07-22T12:52:10;26.50;99.90
8820;DHT22;4446;50.876;4.736;2022-07-22T12:54:39;26.90;99.90
8820;DHT22;4446;50.876;4.736;2022-07-22T12:57:09;26.80;99.90
8820;DHT22;4446;50.876;4.736;2022-07-22T12:59:36;26.90;99.90
8820;DHT22;4446;50.876;4.736;2022-07-22T13:02:03;27.20;99.90
8820;DHT22;4446;50.876;4.736;2022-07-22T13:04:30;27.20;99.90
8820;DHT22;4446;50.876;4.736;2022-07-22T13:06:57;27.30;99.90
8820;DHT22;4446;50.876;4.736;2022-07-22T13:09:26;27.00;99.90
8820;DHT22;4446;50.876;4.736;2022-07-22T13:11:53;27.30;99.90
8820;DHT22;4446;50.876;4.736;2022-07-22T13:14:20;27.50;99.90
8820;DHT22;4446;50.876;4.736;2022-07-22T13:16:47;27.60;99.90
8820;DHT22;4446;50.876;4.736;2022-07-22T13:19:14;27.30;99.90
8820;DHT22;4446;50.876;4.736;2022-07-22T13:21:41;27.40;99.90
8820;DHT22;4446;50.876;4.736;2022-07-22T13:24:10;27.10;99.90
8820;DHT22;4446;50.876;4.736;2022-07-22T13:26:38;27.20;99.90
8820;DHT22;4446;50.876;4.736;2022-07-22T13:29:05;27.30;99.90
8820;DHT22;4446;50.876;4.736;2022-07-22T13:31:33;26.90;99.90
8820;DHT22;4446;50.876;4.736;2022-07-22T13:34:00;26.90;99.90
8820;DHT22;4446;50.876;4.736;2022-07-22T13:36:27;26.90;99.90
8820;DHT22;4446;50.876;4.736;2022-07-22T13:38:58;26.70;99.90
8820;DHT22;4446;50.876;4.736;2022-07-22T13:41:25;26.80;99.90
8820;DHT22;4446;50.876;4.736;2022-07-22T13:43:54;27.20;99.90
8820;DHT22;4446;50.876;4.736;2022-07-22T13:46:21;27.20;99.90
8820;DHT22;4446;50.876;4.736;2022-07-22T13:48:48;27.30;99.90
8820;DHT22;4446;50.876;4.736;2022-07-22T13:51:15;27.20;99.90
8820;DHT22;4446;50.876;4.736;2022-07-22T13:53:42;27.60;99.90
8820;DHT22;4446;50.876;4.736;2022-07-22T13:56:09;27.70;99.90
8820;DHT22;4446;50.876;4.736;2022-07-22T13:58:38;27.80;99.90
8820;DHT22;4446;50.876;4.736;2022-07-22T14:01:08;27.70;99.90
8820;DHT22;4446;50.876;4.736;2022-07-22T14:03:35;27.60;99.90
8820;DHT22;4446;50.876;4.736;2022-07-22T14:06:03;27.40;99.90
8820;DHT22;4446;50.876;4.736;2022-07-22T14:08:30;27.50;99.90
8820;DHT22;4446;50.876;4.736;2022-07-22T14:10:58;27.30;99.90
8820;DHT22;4446;50.876;4.736;2022-07-22T14:13:25;27.20;99.90
8820;DHT22;4446;50.876;4.736;2022-07-22T14:15:52;26.90;99.90
8820;DHT22;4446;50.876;4.736;2022-07-22T14:18:20;27.10;99.90
8820;DHT22;4446;50.876;4.736;2022-07-22T14:20:47;27.70;99.90
8820;DHT22;4446;50.876;4.736;2022-07-22T14:23:14;28.10;99.90
8820;DHT22;4446;50.876;4.736;2022-07-22T14:25:46;28.20;99.90
8820;DHT22;4446;50.876;4.736;2022-07-22T14:28:13;28.30;99.90
8820;DHT22;4446;50.876;4.736;2022-07-22T14:30:40;28.10;99.90
8820;DHT22;4446;50.876;4.736;2022-07-22T14:33:07;27.70;99.90
8820;DHT22;4446;50.876;4.736;2022-07-22T14:35:38;27.30;99.90
8820;DHT22;4446;50.876;4.736;2022-07-22T14:38:05;26.90;99.90
8820;DHT22;4446;50.876;4.736;2022-07-22T14:40:32;26.90;99.90
8820;DHT22;4446;50.876;4.736;2022-07-22T14:42:59;26.90;99.90
8820;DHT22;4446;50.876;4.736;2022-07-22T14:45:26;26.60;99.90
8820;DHT22;4446;50.876;4.736;2022-07-22T14:47:53;26.40;99.90
8820;DHT22;4446;50.876;4.736;2022-07-22T14:50:20;26.40;99.90
8820;DHT22;4446;50.876;4.736;2022-07-22T14:52:49;26.20;99.90
8820;DHT22;4446;50.876;4.736;2022-07-22T14:55:16;26.30;99.90
8820;DHT22;4446;50.876;4.736;2022-07-22T14:57:43;26.20;99.90
8820;DHT22;4446;50.876;4.736;2022-07-22T15:00:10;26.10;99.90
8820;DHT22;4446;50.876;4.736;2022-07-22T15:02:37;25.90;99.90
8820;DHT22;4446;50.876;4.736;2022-07-22T15:05:05;25.60;99.90
8820;DHT22;4446;50.876;4.736;2022-07-22T15:07:32;25.50;99.90
8820;DHT22;4446;50.876;4.736;2022-07-22T15:10:00;25.40;99.90
8820;DHT22;4446;50.876;4.736;2022-07-22T15:12:27;25.20;99.90
8820;DHT22;4446;50.876;4.736;2022-07-22T15:14:54;25.20;99.90
8820;DHT22;4446;50.876;4.736;2022-07-22T15:17:21;25.30;99.90
8820;DHT22;4446;50.876;4.736;2022-07-22T15:19:48;25.40;99.90
8820;DHT22;4446;50.876;4.736;2022-07-22T15:22:15;25.20;99.90
8820;DHT22;4446;50.876;4.736;2022-07-22T15:24:42;25.20;99.90
8820;DHT22;4446;50.876;4.736;2022-07-22T15:27:11;25.10;99.90
8820;DHT22;4446;50.876;4.736;2022-07-22T15:29:38;25.00;99.90
8820;DHT22;4446;50.876;4.736;2022-07-22T15:32:05;25.10;99.90
8820;DHT22;4446;50.876;4.736;2022-07-22T15:34:32;25.20;99.90
8820;DHT22;4446;50.876;4.736;2022-07-22T15:36:59;25.30;99.90
8820;DHT22;4446;50.876;4.736;2022-07-22T15:39:26;25.60;99.90
8820;DHT22;4446;50.876;4.736;2022-07-22T15:41:53;25.50;99.90
8820;DHT22;4446;50.876;4.736;2022-07-22T15:44:22;25.60;99.90
8820;DHT22;4446;50.876;4.736;2022-07-22T15:46:49;25.60;99.90
8820;DHT22;4446;50.876;4.736;2022-07-22T15:49:16;25.40;99.90
8820;DHT22;4446;50.876;4.736;2022-07-22T15:51:43;25.20;99.90
8820;DHT22;4446;50.876;4.736;2022-07-22T15:54:10;25.00;99.90
8820;DHT22;4446;50.876;4.736;2022-07-22T15:56:38;25.00;99.90
8820;DHT22;4446;50.876;4.736;2022-07-22T15:59:05;24.90;99.90
8820;DHT22;4446;50.876;4.736;2022-07-22T16:01:51;24.80;99.90
8820;DHT22;4446;50.876;4.736;2022-07-22T16:04:18;24.50;99.90
8820;DHT22;4446;50.876;4.736;2022-07-22T16:06:45;24.30;99.90
8820;DHT22;4446;50.876;4.736;2022-07-22T16:09:12;24.30;99.90